Time;durP1;ratioP1;P1;durP2;ratioP2;P2;SDS_P1;SDS_P2;PMS_P1;PMS_P2;Temp;Humidity;BMP_temperature;BMP_pressure;BME280_temperature;BME280_humidity;BME280_pressure;Samples;Min_cycle;Max_cycle;Signal;HPM_P1;HPM_P2
2023/07/27 00:00:05;;;;;;;11.35;7.28;;;13.50;99.90;;;;;;5018920;28;20186;-81
2023/07/27 00:02:32;;;;;;;9.88;6.30;;;13.50;99.90;;;;;;5019145;28;20195;-81
2023/07/27 00:04:58;;;;;;;10.27;7.07;;;13.50;99.90;;;;;;5018647;28;20172;-80
2023/07/27 00:07:24;;;;;;;12.63;6.90;;;13.50;99.90;;;;;;5019080;28;20206;-81
2023/07/27 00:09:50;;;;;;;12.18;7.53;;;13.40;99.90;;;;;;5018295;28;20175;-80
2023/07/27 00:12:16;;;;;;;9.45;6.78;;;13.40;99.90;;;;;;5018363;28;20222;-80
2023/07/27 00:14:42;;;;;;;12.93;7.15;;;13.50;99.90;;;;;;5018388;28;20175;-81
2023/07/27 00:17:08;;;;;;;10.48;7.15;;;13.40;99.90;;;;;;5018607;28;20578;-81
2023/07/27 00:19:34;;;;;;;11.68;7.07;;;13.40;99.90;;;;;;5036253;28;20632;-81
2023/07/27 00:22:00;;;;;;;11.15;6.35;;;13.50;99.90;;;;;;5020009;28;20197;-81
2023/07/27 00:24:25;;;;;;;14.45;7.15;;;13.40;99.90;;;;;;5020023;28;20250;-80
2023/07/27 00:26:51;;;;;;;9.82;6.55;;;13.40;99.90;;;;;;5039545;28;20172;-81
2023/07/27 00:29:17;;;;;;;11.25;6.43;;;13.50;99.90;;;;;;5022062;28;20670;-81
2023/07/27 00:31:42;;;;;;;16.08;7.72;;;13.50;99.90;;;;;;5021882;28;20317;-81
2023/07/27 00:34:08;;;;;;;9.82;7.00;;;13.50;99.90;;;;;;5022247;28;20565;-80
2023/07/27 00:36:34;;;;;;;8.88;6.65;;;13.50;99.90;;;;;;5027066;28;20237;-80
2023/07/27 00:39:00;;;;;;;12.60;6.80;;;13.50;99.90;;;;;;5036433;28;20176;-80
2023/07/27 00:41:25;;;;;;;10.23;7.18;;;13.50;99.90;;;;;;5036842;28;20180;-80
2023/07/27 00:43:51;;;;;;;11.43;6.78;;;13.40;99.90;;;;;;5035929;28;20198;-81
2023/07/27 00:46:17;;;;;;;14.90;7.30;;;13.50;99.90;;;;;;5024156;28;20176;-81
2023/07/27 00:48:43;;;;;;;9.95;6.22;;;13.40;99.90;;;;;;5038093;28;20205;-81
2023/07/27 00:51:10;;;;;;;11.90;7.15;;;13.50;99.90;;;;;;5020403;28;20190;-81
2023/07/27 00:53:36;;;;;;;11.30;7.18;;;13.40;99.90;;;;;;5021741;28;20206;-81
2023/07/27 00:56:02;;;;;;;11.85;7.85;;;13.40;99.90;;;;;;5019960;28;20640;-80
2023/07/27 00:58:28;;;;;;;10.75;6.93;;;13.40;99.90;;;;;;5020024;28;20306;-81
2023/07/27 01:00:54;;;;;;;16.58;8.48;;;13.40;99.90;;;;;;5037923;28;20171;-81
2023/07/27 01:03:20;;;;;;;11.10;7.35;;;13.40;99.90;;;;;;5020062;28;20195;-81
2023/07/27 01:05:46;;;;;;;13.88;8.70;;;13.40;99.90;;;;;;5020242;28;20179;-81
2023/07/27 01:08:12;;;;;;;11.57;8.05;;;13.30;99.90;;;;;;5020753;28;20182;-81
2023/07/27 01:11:08;;;;;;;10.82;7.68;;;13.30;99.90;;;;;;5019912;28;20179;-80
2023/07/27 01:13:40;;;;;;;11.77;7.40;;;13.30;99.90;;;;;;5020386;28;20632;-80
2023/07/27 01:16:12;;;;;;;12.38;6.88;;;13.30;99.90;;;;;;5020323;28;20179;-80
2023/07/27 01:18:59;;;;;;;11.82;7.28;;;13.40;99.90;;;;;;5020538;28;20684;-81
2023/07/27 01:21:48;;;;;;;16.13;7.45;;;13.40;99.90;;;;;;5020812;28;20183;-80
2023/07/27 01:24:42;;;;;;;19.20;7.97;;;13.40;99.90;;;;;;5019897;28;20187;-80
2023/07/27 01:27:18;;;;;;;10.35;7.55;;;13.40;99.90;;;;;;5019887;28;20577;-81
2023/07/27 01:30:00;;;;;;;13.52;7.97;;;13.40;99.90;;;;;;5019957;28;20643;-80
2023/07/27 01:32:32;;;;;;;12.18;8.07;;;13.40;99.90;;;;;;5019250;28;20207;-81
2023/07/27 01:35:00;;;;;;;15.40;7.78;;;13.40;99.90;;;;;;5019137;28;20171;-81
2023/07/27 01:37:29;;;;;;;12.90;7.30;;;13.40;99.90;;;;;;5019758;28;20202;-80
2023/07/27 01:39:57;;;;;;;12.57;6.60;;;13.30;99.90;;;;;;5021073;28;20175;-80
2023/07/27 01:42:24;;;;;;;10.18;7.10;;;13.30;99.90;;;;;;5037850;28;20190;-80
2023/07/27 01:44:52;;;;;;;12.85;7.60;;;13.30;99.90;;;;;;5020811;28;20171;-80
2023/07/27 01:47:21;;;;;;;15.60;7.53;;;13.40;99.90;;;;;;5020293;28;20223;-81
2023/07/27 01:49:49;;;;;;;13.43;7.63;;;13.40;99.90;;;;;;5019854;28;20179;-80
2023/07/27 01:52:16;;;;;;;11.75;7.05;;;13.40;99.90;;;;;;5019875;28;20210;-81
2023/07/27 01:54:43;;;;;;;10.43;6.57;;;13.40;99.90;;;;;;5019438;28;20183;-81
2023/07/27 01:57:10;;;;;;;12.68;6.55;;;13.40;99.90;;;;;;5037334;28;20236;-81
2023/07/27 01:59:38;;;;;;;9.27;6.90;;;13.50;99.90;;;;;;5019830;28;20646;-81
2023/07/27 02:02:05;;;;;;;9.68;7.10;;;13.50;99.90;;;;;;5019347;28;20547;-81
2023/07/27 02:04:30;;;;;;;13.55;6.95;;;13.50;99.90;;;;;;5019954;28;20246;-81
2023/07/27 02:06:56;;;;;;;12.07;7.13;;;13.50;99.90;;;;;;5019598;28;20214;-81
2023/07/27 02:09:22;;;;;;;11.20;6.43;;;13.50;99.90;;;;;;5019432;28;20216;-80
2023/07/27 02:11:55;;;;;;;11.73;6.85;;;13.50;99.90;;;;;;5019370;28;20241;-81
2023/07/27 02:14:43;;;;;;;12.40;6.70;;;13.50;99.90;;;;;;5019342;28;20527;-81
2023/07/27 02:17:23;;;;;;;10.77;6.28;;;13.50;99.90;;;;;;5019198;28;20253;-81
2023/07/27 02:19:57;;;;;;;11.13;6.20;;;13.50;99.90;;;;;;5019069;28;20193;-81
2023/07/27 02:22:25;;;;;;;12.30;6.95;;;13.50;99.90;;;;;;5019000;28;20202;-81
2023/07/27 02:24:51;;;;;;;13.23;6.85;;;13.50;99.90;;;;;;5018572;28;20190;-80
2023/07/27 02:27:17;;;;;;;11.63;6.30;;;13.60;99.90;;;;;;5019245;28;20617;-81
2023/07/27 02:29:43;;;;;;;10.65;6.68;;;13.60;99.90;;;;;;5018938;28;20234;-81
2023/07/27 02:32:09;;;;;;;11.00;6.35;;;13.50;99.90;;;;;;5018726;28;20207;-81
2023/07/27 02:34:36;;;;;;;11.13;6.90;;;13.60;99.90;;;;;;5018846;28;20545;-81
2023/07/27 02:37:02;;;;;;;12.07;6.30;;;13.60;99.90;;;;;;5019303;28;20245;-81
2023/07/27 02:39:28;;;;;;;11.95;6.25;;;13.60;99.90;;;;;;5018339;28;20195;-80
2023/07/27 02:41:54;;;;;;;10.95;6.20;;;13.70;99.90;;;;;;5036498;28;20179;-80
2023/07/27 02:44:19;;;;;;;9.20;6.63;;;13.70;99.90;;;;;;5037125;28;20167;-81
2023/07/27 02:46:45;;;;;;;8.63;5.55;;;13.70;99.90;;;;;;5018148;28;20175;-81
2023/07/27 02:49:11;;;;;;;8.27;5.35;;;13.70;99.90;;;;;;5018322;28;20193;-81
2023/07/27 02:51:36;;;;;;;8.77;5.30;;;13.80;99.90;;;;;;5018748;28;20179;-81
2023/07/27 02:54:02;;;;;;;9.38;5.20;;;13.90;99.90;;;;;;5018181;28;20353;-81
2023/07/27 02:56:28;;;;;;;7.13;5.60;;;13.90;99.90;;;;;;5018340;28;20186;-80
2023/07/27 02:58:53;;;;;;;8.50;5.63;;;14.00;99.90;;;;;;5018855;28;20274;-80
2023/07/27 03:01:19;;;;;;;7.45;5.00;;;14.00;99.90;;;;;;5019014;28;20557;-81
2023/07/27 03:03:45;;;;;;;7.32;4.90;;;14.10;99.90;;;;;;5036357;28;20194;-80
2023/07/27 03:06:11;;;;;;;6.13;4.97;;;14.10;99.90;;;;;;5036606;28;20486;-81
2023/07/27 03:08:37;;;;;;;7.07;5.00;;;14.20;99.90;;;;;;5018520;28;20190;-81
2023/07/27 03:11:06;;;;;;;9.32;5.10;;;14.20;99.90;;;;;;5018557;28;20553;-80
2023/07/27 03:13:32;;;;;;;8.85;4.85;;;14.30;99.90;;;;;;5018345;28;20225;-81
2023/07/27 03:16:01;;;;;;;7.88;4.80;;;14.30;99.90;;;;;;5035909;28;20199;-81
2023/07/27 03:18:28;;;;;;;6.18;4.85;;;14.30;99.90;;;;;;5036309;28;20195;-80
2023/07/27 03:20:54;;;;;;;7.82;5.38;;;14.30;99.90;;;;;;5035930;28;20172;-81
2023/07/27 03:23:19;;;;;;;8.48;5.03;;;14.30;99.90;;;;;;5035279;28;20194;-80
2023/07/27 03:25:45;;;;;;;7.10;4.70;;;14.30;99.90;;;;;;5017609;28;20553;-80
2023/07/27 03:28:11;;;;;;;6.60;4.65;;;14.30;99.90;;;;;;5017991;28;20182;-80
2023/07/27 03:30:38;;;;;;;8.23;5.07;;;14.30;99.90;;;;;;5018292;28;20643;-80
2023/07/27 03:33:05;;;;;;;7.05;4.50;;;14.30;99.90;;;;;;5018375;28;20213;-81
2023/07/27 03:35:31;;;;;;;6.18;4.80;;;14.30;99.90;;;;;;5018884;28;20194;-81
2023/07/27 03:37:57;;;;;;;5.55;4.50;;;14.30;99.90;;;;;;5018613;28;20586;-81
2023/07/27 03:40:23;;;;;;;5.70;4.57;;;14.30;99.90;;;;;;5018258;28;20182;-80
2023/07/27 03:42:48;;;;;;;5.82;4.60;;;14.30;99.90;;;;;;5035958;28;20241;-81
2023/07/27 03:45:14;;;;;;;6.72;4.95;;;14.30;99.90;;;;;;5018336;28;20179;-81
2023/07/27 03:47:41;;;;;;;7.28;4.30;;;14.30;99.90;;;;;;5018727;28;20213;-81
2023/07/27 03:50:08;;;;;;;7.40;5.35;;;14.30;99.90;;;;;;5018141;28;20195;-81
2023/07/27 03:52:34;;;;;;;6.95;5.25;;;14.30;99.90;;;;;;5036353;28;20199;-81
2023/07/27 03:55:00;;;;;;;5.85;4.97;;;14.30;99.90;;;;;;5017744;28;20187;-81
2023/07/27 03:57:25;;;;;;;7.78;5.38;;;14.30;99.90;;;;;;5035012;28;20567;-81
2023/07/27 03:59:59;;;;;;;6.00;5.07;;;14.30;99.90;;;;;;5037801;28;20171;-81
2023/07/27 04:02:25;;;;;;;7.38;5.10;;;14.20;99.90;;;;;;5039437;28;20198;-81
2023/07/27 04:04:54;;;;;;;8.63;5.60;;;14.20;99.90;;;;;;5021393;28;20292;-82
2023/07/27 04:07:20;;;;;;;9.40;5.45;;;14.20;99.90;;;;;;5021613;28;20175;-82
2023/07/27 04:09:46;;;;;;;7.93;5.28;;;14.20;99.90;;;;;;5021559;28;20179;-82
2023/07/27 04:12:12;;;;;;;9.63;5.53;;;14.20;99.90;;;;;;5039043;28;20269;-82
2023/07/27 04:14:38;;;;;;;7.05;5.80;;;14.20;99.90;;;;;;5021668;28;20263;-82
2023/07/27 04:17:05;;;;;;;6.97;5.18;;;14.10;99.90;;;;;;5022367;28;20229;-83
2023/07/27 04:19:33;;;;;;;7.95;5.03;;;14.10;99.90;;;;;;5010803;28;20243;-83
2023/07/27 04:21:59;;;;;;;6.65;5.20;;;14.10;99.90;;;;;;5021286;28;20582;-83
2023/07/27 04:24:25;;;;;;;8.60;5.25;;;14.10;99.90;;;;;;5021175;28;20168;-84
2023/07/27 04:26:51;;;;;;;6.40;5.20;;;14.10;99.90;;;;;;5003110;28;20628;-84
2023/07/27 04:29:16;;;;;;;6.88;5.32;;;14.10;99.90;;;;;;5003416;28;20218;-84
2023/07/27 04:31:42;;;;;;;9.60;6.10;;;14.00;99.90;;;;;;5002907;28;20214;-84
2023/07/27 04:34:08;;;;;;;8.05;5.72;;;14.00;99.90;;;;;;5020263;28;20207;-84
2023/07/27 04:36:33;;;;;;;7.05;5.53;;;13.90;99.90;;;;;;5019396;28;20633;-84
2023/07/27 04:38:59;;;;;;;8.07;5.20;;;13.90;99.90;;;;;;5001836;28;20186;-84
2023/07/27 04:41:25;;;;;;;8.15;5.82;;;13.90;99.90;;;;;;5002340;28;20172;-84
2023/07/27 04:43:50;;;;;;;7.93;5.40;;;13.90;99.90;;;;;;5001948;28;20548;-84
2023/07/27 04:46:17;;;;;;;8.43;5.63;;;13.90;99.90;;;;;;5019335;28;20172;-84
2023/07/27 04:48:42;;;;;;;9.52;5.53;;;13.80;99.90;;;;;;5006760;28;20195;-84
2023/07/27 04:51:08;;;;;;;7.15;5.88;;;13.90;99.90;;;;;;5020461;28;20201;-83
2023/07/27 04:53:34;;;;;;;8.30;6.35;;;13.90;99.90;;;;;;5037699;28;20674;-83
2023/07/27 04:56:00;;;;;;;6.93;5.88;;;13.90;99.90;;;;;;5020119;28;20216;-81
2023/07/27 04:58:26;;;;;;;7.82;5.63;;;13.90;99.90;;;;;;5020020;28;20225;-81
2023/07/27 05:00:55;;;;;;;8.40;5.78;;;13.90;99.90;;;;;;5037641;28;20195;-81
2023/07/27 05:03:21;;;;;;;8.07;5.90;;;13.90;99.90;;;;;;5019921;28;20195;-81
2023/07/27 05:05:47;;;;;;;10.57;6.18;;;13.90;99.90;;;;;;5019902;28;20201;-81
2023/07/27 05:08:13;;;;;;;8.68;6.45;;;13.90;99.90;;;;;;5038233;28;20586;-81
2023/07/27 05:10:40;;;;;;;8.13;6.30;;;13.90;99.90;;;;;;5018221;28;20210;-81
2023/07/27 05:13:06;;;;;;;10.63;6.53;;;13.90;99.90;;;;;;5019038;28;20237;-81
2023/07/27 05:15:32;;;;;;;11.07;6.38;;;13.90;99.90;;;;;;5019569;28;20222;-81
2023/07/27 05:17:58;;;;;;;11.93;7.15;;;13.90;99.90;;;;;;5020234;28;20230;-81
2023/07/27 05:20:23;;;;;;;12.85;6.82;;;13.90;99.90;;;;;;5019723;28;20191;-81
2023/07/27 05:22:49;;;;;;;10.50;6.32;;;13.90;99.90;;;;;;5019113;28;20230;-81
2023/07/27 05:25:15;;;;;;;10.32;6.78;;;13.90;99.90;;;;;;5018364;28;20179;-81
2023/07/27 05:27:41;;;;;;;9.73;7.13;;;13.90;99.90;;;;;;5018605;28;20206;-82
2023/07/27 05:30:07;;;;;;;10.23;6.60;;;13.90;99.90;;;;;;5036283;28;20651;-82
2023/07/27 05:32:33;;;;;;;11.27;6.97;;;13.90;99.90;;;;;;5018246;28;20222;-82
2023/07/27 05:34:58;;;;;;;11.93;7.20;;;13.90;99.90;;;;;;5018319;28;20175;-82
2023/07/27 05:37:24;;;;;;;10.57;7.50;;;13.80;99.90;;;;;;5018573;28;20210;-82
2023/07/27 05:39:50;;;;;;;8.20;6.85;;;13.90;99.90;;;;;;5018254;28;20178;-82
2023/07/27 05:42:16;;;;;;;9.88;6.65;;;13.80;99.90;;;;;;5018505;28;20203;-82
2023/07/27 05:44:41;;;;;;;9.75;6.90;;;13.80;99.90;;;;;;5018257;28;20600;-82
2023/07/27 05:47:07;;;;;;;9.20;6.70;;;13.80;99.90;;;;;;5018282;28;20217;-82
2023/07/27 05:49:33;;;;;;;8.57;6.70;;;13.80;99.90;;;;;;5017982;28;20187;-82
2023/07/27 05:51:59;;;;;;;12.10;7.00;;;13.80;99.90;;;;;;5018404;28;20187;-82
2023/07/27 05:54:25;;;;;;;14.07;8.25;;;13.80;99.90;;;;;;5019541;28;20179;-83
2023/07/27 05:56:51;;;;;;;9.90;7.05;;;13.80;99.90;;;;;;5036361;28;20195;-83
2023/07/27 05:59:17;;;;;;;12.57;7.78;;;13.80;99.90;;;;;;5018785;28;20176;-83
2023/07/27 06:01:43;;;;;;;12.98;8.50;;;13.80;99.90;;;;;;5018259;28;20183;-83
2023/07/27 06:04:08;;;;;;;11.38;7.53;;;13.80;99.90;;;;;;5035772;28;20187;-83
2023/07/27 06:06:35;;;;;;;11.77;6.97;;;13.80;99.90;;;;;;5017787;28;20175;-83
2023/07/27 06:09:00;;;;;;;9.00;6.30;;;13.80;99.90;;;;;;5035696;28;20636;-82
2023/07/27 06:11:27;;;;;;;10.52;6.93;;;13.80;99.90;;;;;;5018125;28;20310;-82
2023/07/27 06:13:53;;;;;;;9.68;6.85;;;13.80;99.90;;;;;;5035705;28;20286;-82
2023/07/27 06:16:19;;;;;;;10.73;6.78;;;13.70;99.90;;;;;;5017864;28;20186;-82
2023/07/27 06:18:44;;;;;;;10.63;7.05;;;13.70;99.90;;;;;;5017715;28;20225;-82
2023/07/27 06:21:10;;;;;;;10.60;8.05;;;13.80;99.90;;;;;;5017272;28;20175;-82
2023/07/27 06:23:36;;;;;;;17.85;7.20;;;13.80;99.90;;;;;;5017504;28;20261;-82
2023/07/27 06:26:02;;;;;;;13.55;7.30;;;13.80;99.90;;;;;;5017110;28;20229;-81
2023/07/27 06:28:27;;;;;;;12.43;7.00;;;13.80;99.90;;;;;;5018026;28;20289;-81
2023/07/27 06:30:53;;;;;;;10.57;7.22;;;13.70;99.90;;;;;;5017131;28;20214;-82
2023/07/27 06:33:19;;;;;;;12.27;7.38;;;13.80;99.90;;;;;;5017182;28;20698;-81
2023/07/27 06:35:45;;;;;;;10.05;6.47;;;13.80;99.90;;;;;;5017217;28;20179;-82
2023/07/27 06:38:10;;;;;;;11.50;6.90;;;13.80;99.90;;;;;;5037140;28;20202;-82
2023/07/27 06:40:36;;;;;;;16.65;8.18;;;13.80;99.90;;;;;;5021736;28;20187;-82
2023/07/27 06:43:02;;;;;;;12.13;7.38;;;13.80;99.90;;;;;;5039906;28;20234;-82
2023/07/27 06:45:28;;;;;;;9.93;7.20;;;13.80;99.90;;;;;;5019802;28;20537;-82
2023/07/27 06:47:53;;;;;;;11.75;7.78;;;13.90;99.90;;;;;;5019104;28;20681;-82
2023/07/27 06:50:19;;;;;;;13.43;7.57;;;13.90;99.90;;;;;;5018809;28;20190;-82
2023/07/27 06:52:45;;;;;;;10.35;7.38;;;13.90;99.90;;;;;;5018904;28;20199;-82
2023/07/27 06:55:11;;;;;;;10.48;7.53;;;13.80;99.90;;;;;;5018379;28;20186;-81
2023/07/27 06:57:36;;;;;;;13.82;9.35;;;13.80;99.90;;;;;;5018631;28;20202;-82
2023/07/27 07:00:03;;;;;;;14.13;8.93;;;13.80;99.90;;;;;;5018870;28;20175;-82
2023/07/27 07:02:29;;;;;;;13.60;7.38;;;13.90;99.90;;;;;;5037829;28;20214;-82
2023/07/27 07:04:54;;;;;;;10.40;7.85;;;13.90;99.90;;;;;;5017242;28;20171;-82
2023/07/27 07:07:20;;;;;;;8.75;6.28;;;13.90;99.90;;;;;;5017570;28;20598;-83
2023/07/27 07:09:46;;;;;;;7.15;5.65;;;14.00;99.90;;;;;;5016768;28;20176;-81
2023/07/27 07:12:12;;;;;;;7.55;5.93;;;14.00;99.90;;;;;;5034177;28;20207;-82
2023/07/27 07:14:38;;;;;;;7.95;5.80;;;14.00;99.90;;;;;;5017060;28;20178;-82
2023/07/27 07:17:04;;;;;;;9.73;5.82;;;14.00;99.90;;;;;;5016474;28;20214;-82
2023/07/27 07:19:30;;;;;;;7.25;5.93;;;14.00;99.90;;;;;;5016512;28;20682;-82
2023/07/27 07:21:56;;;;;;;8.30;5.70;;;14.00;99.90;;;;;;5016278;28;20206;-81
2023/07/27 07:24:22;;;;;;;9.88;6.15;;;14.00;99.90;;;;;;5034991;28;20537;-82
2023/07/27 07:26:48;;;;;;;7.10;5.18;;;14.10;99.90;;;;;;5018302;28;20181;-82
2023/07/27 07:29:13;;;;;;;7.78;5.75;;;14.10;99.90;;;;;;5018273;28;20807;-82
2023/07/27 07:31:39;;;;;;;7.45;5.68;;;14.20;99.90;;;;;;5034803;28;20160;-82
2023/07/27 07:34:05;;;;;;;10.38;6.25;;;14.20;99.90;;;;;;5015723;28;20214;-82
2023/07/27 07:36:30;;;;;;;8.18;5.38;;;14.20;99.90;;;;;;5033973;28;20224;-81
2023/07/27 07:38:56;;;;;;;7.53;5.32;;;14.30;99.90;;;;;;5016047;28;20195;-81
2023/07/27 07:41:22;;;;;;;8.02;5.32;;;14.30;99.90;;;;;;5016165;28;20175;-81
2023/07/27 07:43:49;;;;;;;7.55;5.20;;;14.30;99.90;;;;;;5016910;28;20195;-81
2023/07/27 07:46:15;;;;;;;9.27;5.25;;;14.40;99.90;;;;;;5016834;28;20706;-81
2023/07/27 07:48:40;;;;;;;16.15;5.85;;;14.40;99.90;;;;;;5034221;28;20222;-81
2023/07/27 07:51:10;;;;;;;6.70;5.32;;;14.40;99.90;;;;;;5017162;28;20186;-81
2023/07/27 07:53:36;;;;;;;7.78;5.68;;;14.40;99.90;;;;;;5017219;28;20229;-82
2023/07/27 07:56:03;;;;;;;7.13;5.50;;;14.50;99.90;;;;;;5017429;28;20182;-81
2023/07/27 07:58:29;;;;;;;6.13;4.88;;;14.60;99.90;;;;;;5016693;28;20203;-81
2023/07/27 08:00:55;;;;;;;8.32;5.38;;;14.60;99.90;;;;;;5017110;28;20532;-82
2023/07/27 08:03:20;;;;;;;6.35;4.57;;;14.60;99.90;;;;;;5016888;28;20304;-81
2023/07/27 08:05:46;;;;;;;8.43;5.25;;;14.60;99.90;;;;;;5034748;28;20191;-81
2023/07/27 08:08:13;;;;;;;5.32;4.78;;;14.60;99.90;;;;;;5016733;28;20183;-81
2023/07/27 08:10:39;;;;;;;4.88;4.35;;;14.70;99.90;;;;;;5017712;28;20194;-80
2023/07/27 08:13:05;;;;;;;5.95;4.75;;;14.70;99.90;;;;;;5017720;28;20219;-81
2023/07/27 08:15:30;;;;;;;4.85;4.43;;;14.70;99.90;;;;;;5017371;28;20186;-81
2023/07/27 08:17:56;;;;;;;4.80;4.30;;;14.70;99.90;;;;;;5016597;28;20582;-81
2023/07/27 08:20:22;;;;;;;5.43;4.25;;;14.70;99.90;;;;;;5016205;28;20190;-81
2023/07/27 08:22:47;;;;;;;5.32;3.90;;;14.70;99.90;;;;;;5033370;28;20263;-81
2023/07/27 08:25:14;;;;;;;4.53;4.13;;;14.80;99.90;;;;;;5016155;28;20304;-80
2023/07/27 08:27:41;;;;;;;4.95;4.22;;;14.80;99.90;;;;;;5033872;28;20207;-80
2023/07/27 08:30:07;;;;;;;4.47;4.00;;;14.80;99.90;;;;;;5016007;28;20179;-81
2023/07/27 08:32:34;;;;;;;5.05;4.28;;;14.80;99.90;;;;;;5015614;28;20204;-81
2023/07/27 08:35:00;;;;;;;4.20;3.75;;;14.90;99.90;;;;;;5015764;28;20179;-81
2023/07/27 08:37:25;;;;;;;8.30;4.47;;;14.90;99.90;;;;;;5033878;28;20206;-81
2023/07/27 08:39:51;;;;;;;5.03;4.15;;;15.00;99.90;;;;;;5015623;28;20184;-81
2023/07/27 08:42:18;;;;;;;4.35;3.95;;;15.00;99.90;;;;;;5015452;28;20273;-81
2023/07/27 08:44:45;;;;;;;5.88;4.43;;;15.10;99.90;;;;;;5016057;28;20163;-81
2023/07/27 08:47:11;;;;;;;5.40;3.85;;;15.10;99.90;;;;;;5036409;28;20289;-81
2023/07/27 08:49:40;;;;;;;4.63;3.88;;;15.20;99.90;;;;;;5037044;28;20632;-81
2023/07/27 08:52:07;;;;;;;4.30;3.95;;;15.10;99.90;;;;;;5019132;28;20233;-81
2023/07/27 08:54:33;;;;;;;7.07;4.65;;;15.20;99.90;;;;;;5037305;28;20178;-81
2023/07/27 08:56:58;;;;;;;4.45;4.05;;;15.20;99.90;;;;;;5038661;28;20277;-81
2023/07/27 08:59:24;;;;;;;4.80;4.30;;;15.30;99.90;;;;;;5019924;28;20191;-80
2023/07/27 09:01:51;;;;;;;3.92;3.63;;;15.30;99.90;;;;;;5037216;28;20205;-81
2023/07/27 09:04:17;;;;;;;4.30;3.90;;;15.30;99.90;;;;;;5036489;28;20179;-81
2023/07/27 09:06:49;;;;;;;4.70;4.18;;;15.30;99.90;;;;;;5036771;28;20754;-80
2023/07/27 09:09:21;;;;;;;4.50;4.10;;;15.30;99.90;;;;;;5019350;28;20562;-80
2023/07/27 09:11:47;;;;;;;4.68;3.63;;;15.40;99.90;;;;;;5019977;28;20550;-81
2023/07/27 09:14:18;;;;;;;4.35;3.92;;;15.50;99.90;;;;;;5019604;28;20195;-81
2023/07/27 09:16:45;;;;;;;6.25;4.25;;;15.50;99.90;;;;;;5019154;28;20179;-81
2023/07/27 09:19:12;;;;;;;4.28;3.85;;;15.50;99.90;;;;;;5018438;28;20210;-80
2023/07/27 09:21:44;;;;;;;4.63;4.10;;;15.50;99.90;;;;;;5018619;28;20175;-81
2023/07/27 09:24:14;;;;;;;4.70;4.22;;;15.50;99.90;;;;;;5018631;28;20278;-80
2023/07/27 09:26:45;;;;;;;5.22;4.72;;;15.60;99.90;;;;;;5018233;28;20214;-80
2023/07/27 09:29:12;;;;;;;4.47;4.07;;;15.60;99.90;;;;;;5020381;28;20258;-81
2023/07/27 09:31:52;;;;;;;4.90;4.40;;;15.60;99.90;;;;;;5036939;28;20175;-81
2023/07/27 09:34:20;;;;;;;4.80;3.70;;;15.70;99.90;;;;;;5036893;28;20163;-81
2023/07/27 09:36:47;;;;;;;3.90;3.60;;;15.70;99.90;;;;;;5019364;28;20229;-81
2023/07/27 09:39:14;;;;;;;4.10;3.80;;;15.80;99.90;;;;;;5019448;28;20175;-81
2023/07/27 09:41:44;;;;;;;5.55;4.00;;;15.80;99.90;;;;;;5036868;28;20171;-81
2023/07/27 09:44:17;;;;;;;5.30;3.88;;;15.80;99.90;;;;;;5018876;28;20278;-81
2023/07/27 09:46:47;;;;;;;4.30;3.90;;;15.70;99.90;;;;;;5019165;28;20175;-81
2023/07/27 09:49:17;;;;;;;5.50;3.60;;;15.70;99.90;;;;;;5036242;28;20648;-79
2023/07/27 09:51:44;;;;;;;4.28;3.88;;;15.60;99.90;;;;;;5036297;28;20152;-80
2023/07/27 09:54:14;;;;;;;4.35;3.95;;;15.50;99.90;;;;;;5017681;28;20240;-77
2023/07/27 09:56:40;;;;;;;4.13;3.60;;;15.50;99.90;;;;;;5034813;28;20182;-77
2023/07/27 09:59:07;;;;;;;4.20;3.83;;;15.50;99.90;;;;;;5017557;28;20681;-77
2023/07/27 10:01:33;;;;;;;4.05;3.65;;;15.50;99.90;;;;;;5017194;28;20182;-77
2023/07/27 10:03:59;;;;;;;7.03;3.78;;;15.50;99.90;;;;;;5017621;28;20275;-78
2023/07/27 10:06:29;;;;;;;4.28;3.95;;;15.50;99.90;;;;;;5017748;28;20198;-78
2023/07/27 10:08:56;;;;;;;4.65;4.15;;;15.50;99.90;;;;;;5035875;28;20183;-78
2023/07/27 10:11:56;;;;;;;7.38;4.03;;;15.70;99.90;;;;;;5017452;28;20190;-78
2023/07/27 10:14:28;;;;;;;5.07;3.58;;;15.70;99.90;;;;;;5017522;28;20273;-77
2023/07/27 10:17:07;;;;;;;5.70;3.78;;;15.70;99.90;;;;;;5017728;28;20297;-78
2023/07/27 10:19:43;;;;;;;4.70;3.95;;;15.80;99.90;;;;;;5017532;28;20558;-78
2023/07/27 10:22:27;;;;;;;4.30;3.83;;;15.90;99.90;;;;;;5017406;28;20644;-78
2023/07/27 10:24:58;;;;;;;5.40;3.30;;;15.90;99.90;;;;;;5017657;28;20170;-78
2023/07/27 10:27:24;;;;;;;4.68;3.50;;;15.90;99.90;;;;;;5035216;28;20159;-78
2023/07/27 10:30:12;;;;;;;4.22;3.53;;;16.00;99.90;;;;;;5035036;28;20171;-79
2023/07/27 10:32:38;;;;;;;3.83;3.42;;;16.00;99.90;;;;;;5017383;28;20199;-79
2023/07/27 10:35:07;;;;;;;3.78;3.25;;;16.00;99.90;;;;;;5035428;28;20669;-78
2023/07/27 10:37:53;;;;;;;3.30;3.00;;;16.00;99.90;;;;;;5017499;28;20206;-79
2023/07/27 10:40:29;;;;;;;3.28;2.97;;;16.10;99.90;;;;;;5034956;28;20151;-78
2023/07/27 10:42:58;;;;;;;3.35;2.92;;;16.10;99.90;;;;;;5017108;28;20207;-78
2023/07/27 10:45:26;;;;;;;3.63;2.83;;;16.10;99.90;;;;;;5016957;28;20183;-78
2023/07/27 10:47:56;;;;;;;3.00;2.70;;;16.10;99.90;;;;;;5017131;28;20187;-79
2023/07/27 10:50:22;;;;;;;2.92;2.60;;;16.20;99.90;;;;;;5017055;28;20732;-78
2023/07/27 10:52:52;;;;;;;2.75;2.55;;;16.20;99.90;;;;;;5016832;28;20202;-78
2023/07/27 10:55:20;;;;;;;3.08;2.50;;;16.30;99.90;;;;;;5017606;28;20183;-79
2023/07/27 10:57:47;;;;;;;2.92;2.72;;;16.50;99.90;;;;;;5035372;28;20218;-78
2023/07/27 11:00:13;;;;;;;2.67;2.42;;;16.60;99.90;;;;;;5034548;28;20178;-81
2023/07/27 11:02:44;;;;;;;3.13;2.92;;;16.60;99.90;;;;;;5016239;28;20195;-82
2023/07/27 11:05:12;;;;;;;2.75;2.55;;;16.70;99.90;;;;;;5016713;28;20206;-82
2023/07/27 11:07:46;;;;;;;2.75;2.55;;;16.90;99.90;;;;;;5017548;28;20179;-81
2023/07/27 11:10:15;;;;;;;2.90;2.70;;;16.80;99.90;;;;;;5016421;28;20533;-81
2023/07/27 11:12:49;;;;;;;3.60;2.75;;;16.80;99.90;;;;;;5015671;28;20261;-81
2023/07/27 11:15:25;;;;;;;4.07;3.55;;;16.80;99.90;;;;;;5016073;28;20191;-80
2023/07/27 11:17:56;;;;;;;3.25;3.03;;;16.70;99.90;;;;;;5016007;28;20674;-81
2023/07/27 11:20:24;;;;;;;3.25;3.00;;;16.90;99.90;;;;;;5016065;28;20183;-82
2023/07/27 11:22:50;;;;;;;4.35;3.47;;;16.80;99.90;;;;;;5034107;28;20187;-81
2023/07/27 11:25:16;;;;;;;4.32;3.92;;;16.80;99.90;;;;;;5016123;28;20179;-81
2023/07/27 11:27:42;;;;;;;5.43;3.80;;;16.90;99.90;;;;;;5015907;28;20709;-81
2023/07/27 11:30:12;;;;;;;4.50;4.13;;;16.80;99.90;;;;;;5015949;28;20179;-81
2023/07/27 11:32:38;;;;;;;4.32;3.92;;;17.00;99.90;;;;;;5016029;28;20282;-81
2023/07/27 11:35:04;;;;;;;6.25;4.22;;;17.10;99.90;;;;;;5016186;28;20183;-81
2023/07/27 11:37:31;;;;;;;5.90;4.35;;;17.10;99.90;;;;;;5015841;28;20202;-82
2023/07/27 11:39:57;;;;;;;5.93;4.35;;;17.10;99.90;;;;;;5016066;28;20182;-82
2023/07/27 11:42:28;;;;;;;6.40;5.32;;;17.10;99.90;;;;;;5016012;28;20223;-82
2023/07/27 11:44:55;;;;;;;5.18;4.68;;;17.10;99.90;;;;;;5016141;28;20253;-82
2023/07/27 11:47:22;;;;;;;5.82;4.78;;;17.10;99.90;;;;;;5016175;28;20662;-82
2023/07/27 11:49:53;;;;;;;6.30;5.30;;;17.10;99.90;;;;;;5033867;28;20183;-82
2023/07/27 11:52:20;;;;;;;6.47;5.82;;;17.20;99.90;;;;;;5016080;28;20277;-81
2023/07/27 11:54:51;;;;;;;7.90;6.90;;;17.20;99.90;;;;;;5016034;28;20183;-82
2023/07/27 11:57:17;;;;;;;7.25;6.30;;;17.20;99.90;;;;;;5016142;28;20218;-82
2023/07/27 11:59:59;;;;;;;8.88;7.78;;;17.20;99.90;;;;;;5016205;28;20175;-82
2023/07/27 12:02:24;;;;;;;9.77;8.55;;;17.20;99.90;;;;;;5016413;28;20226;-82
2023/07/27 12:04:50;;;;;;;9.52;8.52;;;17.20;99.90;;;;;;5016831;28;20171;-82
2023/07/27 12:07:17;;;;;;;10.02;8.93;;;17.20;99.90;;;;;;5016422;28;20550;-81
2023/07/27 12:09:44;;;;;;;10.88;9.48;;;17.10;99.90;;;;;;5016277;28;20605;-82
2023/07/27 12:12:09;;;;;;;10.48;9.38;;;17.00;99.90;;;;;;5016429;28;20240;-81
2023/07/27 12:14:40;;;;;;;10.00;8.95;;;17.00;99.90;;;;;;5017296;28;20266;-81
2023/07/27 12:17:10;;;;;;;11.98;9.82;;;17.00;99.90;;;;;;5034304;28;20266;-81
2023/07/27 12:19:36;;;;;;;11.25;10.15;;;17.00;99.90;;;;;;5034873;28;20179;-81
2023/07/27 12:22:02;;;;;;;14.10;10.73;;;17.10;99.90;;;;;;5020728;28;20183;-81
2023/07/27 12:24:28;;;;;;;11.50;10.07;;;17.20;99.90;;;;;;5038472;28;20187;-82
2023/07/27 12:26:54;;;;;;;11.00;9.90;;;17.30;99.90;;;;;;5020443;28;20233;-82
2023/07/27 12:29:20;;;;;;;11.65;10.40;;;17.30;99.90;;;;;;5020338;28;20549;-82
2023/07/27 12:31:46;;;;;;;11.80;10.60;;;17.20;99.90;;;;;;5020223;28;20218;-82
2023/07/27 12:34:11;;;;;;;12.02;10.40;;;17.10;99.90;;;;;;5020239;28;20201;-81
2023/07/27 12:36:37;;;;;;;10.95;9.85;;;17.10;99.90;;;;;;5038688;28;20176;-82
2023/07/27 12:39:03;;;;;;;11.20;10.10;;;17.10;99.90;;;;;;5021278;28;20626;-81
2023/07/27 12:41:29;;;;;;;15.13;10.60;;;17.00;99.90;;;;;;5040074;28;20216;-82
2023/07/27 12:43:56;;;;;;;14.23;9.95;;;17.10;99.90;;;;;;5022542;28;20570;-82